Time;durP1;ratioP1;P1;durP2;ratioP2;P2;SDS_P1;SDS_P2;PMS_P1;PMS_P2;Temp;Humidity;BMP_temperature;BMP_pressure;BME280_temperature;BME280_humidity;BME280_pressure;Samples;Min_cycle;Max_cycle;Signal;HPM_P1;HPM_P2
2022/01/16 00:05:46;;;;;;;65.73;19.13;;;;;4.20;101644.00;;;;5061974;28;20232;-72
2022/01/16 00:08:33;;;;;;;57.47;18.93;;;;;4.10;101644.00;;;;5028084;28;20229;-73
2022/01/16 00:11:20;;;;;;;49.07;17.07;;;;;4.30;101644.00;;;;5057821;28;21442;-73
2022/01/16 00:14:07;;;;;;;65.93;18.30;;;;;4.20;101640.00;;;;5052442;28;20281;-74
2022/01/16 00:16:53;;;;;;;56.10;18.80;;;;;4.20;101637.00;;;;5056202;28;20232;-71
2022/01/16 00:19:39;;;;;;;52.03;17.00;;;;;4.10;101633.00;;;;5067034;28;20234;-71
2022/01/16 00:22:30;;;;;;;53.33;17.87;;;;;4.10;101643.00;;;;5066869;28;20598;-71
2022/01/16 00:25:16;;;;;;;50.67;17.00;;;;;4.40;101637.00;;;;5059884;28;20243;-74
2022/01/16 00:28:04;;;;;;;48.13;17.20;;;;;4.20;101641.00;;;;5049812;28;20228;-73
2022/01/16 00:30:52;;;;;;;48.33;17.33;;;;;4.10;101618.00;;;;5062150;28;20333;-71
2022/01/16 00:33:39;;;;;;;47.53;18.13;;;;;4.10;101632.00;;;;5067614;28;20227;-71
2022/01/16 00:36:25;;;;;;;49.13;17.37;;;;;4.00;101638.00;;;;5068136;28;20235;-72
2022/01/16 00:39:11;;;;;;;44.83;16.53;;;;;4.00;101647.00;;;;5068454;28;20232;-72
2022/01/16 00:41:58;;;;;;;41.37;15.07;;;;;4.00;101655.00;;;;5061862;28;20230;-72
2022/01/16 00:44:45;;;;;;;37.80;15.33;;;;;3.90;101662.00;;;;5067832;28;20597;-72
2022/01/16 00:47:32;;;;;;;43.33;16.43;;;;;3.90;101635.00;;;;5073541;28;20227;-72
2022/01/16 00:50:19;;;;;;;40.87;14.40;;;;;3.90;101629.00;;;;5068283;28;20232;-72
2022/01/16 00:53:05;;;;;;;41.97;15.20;;;;;4.10;101653.00;;;;5062847;28;20745;-72
2022/01/16 00:55:52;;;;;;;36.03;14.57;;;;;3.90;101650.00;;;;5062284;28;20224;-72
2022/01/16 00:58:38;;;;;;;38.03;13.40;;;;;3.90;101655.00;;;;5068694;28;20666;-73
2022/01/16 01:01:26;;;;;;;34.70;14.00;;;;;3.90;101651.00;;;;5067578;28;20343;-72
2022/01/16 01:04:13;;;;;;;35.80;13.80;;;;;3.70;101647.00;;;;5063654;28;20227;-71
2022/01/16 01:06:59;;;;;;;32.83;13.43;;;;;3.90;101628.00;;;;5062969;28;20282;-71
2022/01/16 01:09:46;;;;;;;32.30;14.07;;;;;3.80;101667.00;;;;5060263;28;20297;-73
2022/01/16 01:12:51;;;;;;;38.73;14.90;;;;;3.80;101644.00;;;;5066392;28;20297;-72
2022/01/16 01:15:44;;;;;;;35.70;14.67;;;;;3.80;101649.00;;;;5065000;28;20589;-72
2022/01/16 01:18:33;;;;;;;42.90;14.83;;;;;3.90;101648.00;;;;5068231;28;20230;-72
2022/01/16 01:21:28;;;;;;;39.57;15.43;;;;;3.80;101654.00;;;;5070491;28;20240;-72
2022/01/16 01:24:15;;;;;;;45.27;16.67;;;;;3.80;101642.00;;;;5068904;28;20270;-71
2022/01/16 01:27:12;;;;;;;51.00;16.93;;;;;3.80;101644.00;;;;5069038;28;20232;-72
2022/01/16 01:30:03;;;;;;;57.77;19.40;;;;;3.90;101673.00;;;;5066902;28;20232;-72
2022/01/16 01:32:49;;;;;;;52.00;17.83;;;;;3.90;101678.00;;;;5065613;28;20359;-71
2022/01/16 01:35:38;;;;;;;53.87;19.67;;;;;3.80;101680.00;;;;5067691;28;20586;-72
2022/01/16 01:38:25;;;;;;;50.83;18.07;;;;;3.70;101643.00;;;;5071176;28;20227;-72
2022/01/16 01:41:11;;;;;;;60.63;18.97;;;;;3.70;101605.00;;;;5068946;28;20251;-72
2022/01/16 01:53:15;;;;;;;63.80;22.33;;;;;3.70;101623.00;;;;5063507;28;20715;-73
2022/01/16 01:56:02;;;;;;;73.03;23.63;;;;;3.70;101636.00;;;;5058519;28;20806;-73
2022/01/16 01:58:48;;;;;;;76.87;25.20;;;;;3.70;101654.00;;;;5056904;28;20239;-72
2022/01/16 02:01:35;;;;;;;65.53;23.67;;;;;3.90;101666.00;;;;5056747;28;20224;-73
2022/01/16 02:04:22;;;;;;;69.87;23.90;;;;;3.70;101667.00;;;;5065527;28;20220;-73
2022/01/16 02:07:08;;;;;;;68.03;23.17;;;;;3.80;101667.00;;;;5070318;28;20224;-73
2022/01/16 02:09:56;;;;;;;70.93;24.03;;;;;3.80;101680.00;;;;5066423;28;20228;-73
2022/01/16 02:12:45;;;;;;;65.73;22.27;;;;;3.80;101667.00;;;;5074467;28;20217;-72
2022/01/16 02:15:50;;;;;;;66.03;22.83;;;;;3.70;101636.00;;;;5074592;28;20267;-73
2022/01/16 02:28:37;;;;;;;57.77;22.23;;;;;3.90;101675.00;;;;5074087;28;20643;-74
2022/01/16 02:31:25;;;;;;;58.27;21.90;;;;;3.70;101678.00;;;;5086451;28;20240;-73
2022/01/16 02:34:31;;;;;;;52.03;20.00;;;;;3.70;101664.00;;;;5074775;28;20232;-72
2022/01/16 02:37:23;;;;;;;54.63;20.37;;;;;3.80;101654.00;;;;5067023;28;20231;-71
2022/01/16 02:40:18;;;;;;;61.10;21.23;;;;;3.70;101665.00;;;;5064373;28;20238;-73
2022/01/16 02:43:05;;;;;;;57.53;20.23;;;;;3.70;101660.00;;;;5066927;28;20232;-75
2022/01/16 02:46:08;;;;;;;56.03;21.23;;;;;3.70;101650.00;;;;5064770;28;20227;-72
2022/01/16 02:48:55;;;;;;;61.23;22.33;;;;;3.70;101652.00;;;;5062225;28;20311;-74
2022/01/16 02:51:41;;;;;;;55.47;20.53;;;;;3.60;101631.00;;;;5066545;28;20219;-73
2022/01/16 02:54:34;;;;;;;62.70;22.17;;;;;3.60;101643.00;;;;5067175;28;20227;-71
2022/01/16 02:57:22;;;;;;;63.47;20.93;;;;;3.70;101643.00;;;;5063498;28;20238;-72
2022/01/16 03:00:09;;;;;;;57.00;21.67;;;;;3.60;101637.00;;;;5065801;28;20258;-72
2022/01/16 03:02:56;;;;;;;65.03;22.03;;;;;3.80;101625.00;;;;5064873;28;20698;-72
2022/01/16 03:05:42;;;;;;;64.43;22.50;;;;;3.70;101621.00;;;;5066305;28;20219;-72
2022/01/16 03:08:29;;;;;;;65.40;22.37;;;;;3.90;101606.00;;;;5064015;28;20223;-74
2022/01/16 03:11:24;;;;;;;61.23;22.87;;;;;3.80;101589.00;;;;5065720;28;20255;-72
2022/01/16 03:14:13;;;;;;;59.60;23.03;;;;;3.80;101584.00;;;;5061762;28;20269;-72
2022/01/16 03:16:59;;;;;;;56.73;22.07;;;;;3.70;101584.00;;;;5060093;28;20350;-72
2022/01/16 03:22:49;;;;;;;64.00;21.63;;;;;3.70;101580.00;;;;5059577;28;20299;-72
2022/01/16 03:25:36;;;;;;;58.93;21.73;;;;;3.90;101588.00;;;;5067622;28;20230;-74
2022/01/16 03:28:25;;;;;;;57.13;22.63;;;;;3.70;101587.00;;;;5056458;28;20224;-72
2022/01/16 03:31:12;;;;;;;62.83;21.47;;;;;3.80;101574.00;;;;5060927;28;20233;-73
2022/01/16 03:33:59;;;;;;;65.50;21.67;;;;;3.70;101576.00;;;;5067705;28;20587;-73
2022/01/16 03:36:45;;;;;;;58.03;21.90;;;;;3.80;101576.00;;;;5063256;28;20223;-73
2022/01/16 03:39:31;;;;;;;52.37;22.20;;;;;3.80;101579.00;;;;5060101;28;20231;-72
2022/01/16 03:42:24;;;;;;;61.80;22.93;;;;;3.70;101586.00;;;;5067617;28;20232;-75
2022/01/16 03:45:12;;;;;;;55.53;21.87;;;;;3.80;101575.00;;;;5069162;28;20260;-74
2022/01/16 03:47:59;;;;;;;53.77;20.17;;;;;3.70;101576.00;;;;5067843;28;20223;-73
2022/01/16 03:50:46;;;;;;;57.50;21.83;;;;;3.70;101581.00;;;;5062657;28;20251;-73
2022/01/16 03:53:32;;;;;;;47.83;20.53;;;;;3.70;101598.00;;;;5068005;28;20231;-72
2022/01/16 03:56:18;;;;;;;47.70;21.33;;;;;3.70;101593.00;;;;5065945;28;20239;-72
2022/01/16 03:59:05;;;;;;;50.77;21.17;;;;;3.70;101600.00;;;;5078778;28;20881;-72
2022/01/16 04:01:53;;;;;;;49.90;20.20;;;;;3.70;101600.00;;;;5068508;28;20231;-74
2022/01/16 04:04:39;;;;;;;54.17;21.00;;;;;3.80;101607.00;;;;5068844;28;20216;-72
2022/01/16 04:07:31;;;;;;;49.97;20.93;;;;;4.00;101615.00;;;;5068209;28;20244;-72
2022/01/16 04:10:18;;;;;;;55.00;22.87;;;;;3.90;101621.00;;;;5067957;28;20914;-72
2022/01/16 04:13:04;;;;;;;55.03;21.70;;;;;3.90;101620.00;;;;5040976;28;20228;-70
2022/01/16 04:15:50;;;;;;;51.17;21.77;;;;;3.90;101604.00;;;;5068824;28;20228;-70
2022/01/16 04:18:38;;;;;;;56.23;22.80;;;;;3.80;101602.00;;;;5068469;28;20991;-67
2022/01/16 04:21:26;;;;;;;48.30;21.47;;;;;3.80;101612.00;;;;5068053;28;20286;-71
2022/01/16 04:24:14;;;;;;;54.63;21.27;;;;;3.80;101621.00;;;;5068135;28;20233;-70
2022/01/16 04:27:01;;;;;;;57.80;21.50;;;;;3.80;101607.00;;;;5065764;28;20224;-70
2022/01/16 04:29:47;;;;;;;54.17;21.90;;;;;3.80;101606.00;;;;5068219;28;20228;-70
2022/01/16 04:32:33;;;;;;;50.77;20.33;;;;;3.80;101617.00;;;;5068286;28;20234;-71
2022/01/16 04:35:21;;;;;;;59.07;20.60;;;;;3.90;101614.00;;;;5065037;28;20232;-71
2022/01/16 04:38:07;;;;;;;57.80;21.47;;;;;3.90;101629.00;;;;5058055;28;20235;-70
2022/01/16 04:43:58;;;;;;;71.67;22.90;;;;;3.80;101621.00;;;;5062002;28;20282;-71
2022/01/16 04:46:46;;;;;;;65.80;23.13;;;;;3.70;101628.00;;;;5063945;28;20224;-71
2022/01/16 04:49:32;;;;;;;67.50;21.47;;;;;3.70;101620.00;;;;5067990;28;20802;-70
2022/01/16 04:52:20;;;;;;;73.90;23.67;;;;;3.80;101616.00;;;;5072178;28;20244;-71
2022/01/16 04:55:08;;;;;;;67.93;22.97;;;;;3.90;101625.00;;;;5067839;28;20883;-71
2022/01/16 04:57:54;;;;;;;66.83;22.90;;;;;3.80;101621.00;;;;5061125;28;20274;-71
2022/01/16 05:00:41;;;;;;;69.90;23.03;;;;;3.70;101621.00;;;;5067377;28;20228;-70
2022/01/16 05:03:29;;;;;;;76.63;22.90;;;;;3.90;101618.00;;;;5067551;28;20334;-69
2022/01/16 05:06:15;;;;;;;71.40;22.70;;;;;3.90;101607.00;;;;5067678;28;20240;-72
2022/01/16 05:09:03;;;;;;;74.83;23.57;;;;;3.90;101607.00;;;;5067194;28;20228;-71
2022/01/16 05:11:54;;;;;;;75.03;22.27;;;;;3.70;101597.00;;;;5067365;28;20240;-69
2022/01/16 05:17:49;;;;;;;68.90;22.37;;;;;3.70;101602.00;;;;5003942;28;20228;-71
2022/01/16 05:20:36;;;;;;;67.23;21.27;;;;;3.90;101596.00;;;;5067330;28;20610;-74
2022/01/16 05:23:22;;;;;;;70.17;21.57;;;;;3.80;101598.00;;;;5066023;28;20239;-71
2022/01/16 05:26:10;;;;;;;63.87;21.10;;;;;3.70;101617.00;;;;5066930;28;20231;-71
2022/01/16 05:28:56;;;;;;;67.67;20.97;;;;;3.70;101596.00;;;;5060998;28;20224;-70
2022/01/16 05:31:44;;;;;;;66.87;20.33;;;;;3.70;101592.00;;;;5066545;28;20228;-71
2022/01/16 05:34:31;;;;;;;65.97;20.87;;;;;3.80;101605.00;;;;5066820;28;20236;-72
2022/01/16 05:37:18;;;;;;;65.50;20.63;;;;;3.80;101606.00;;;;5063127;28;20701;-70
2022/01/16 05:40:05;;;;;;;60.47;20.53;;;;;3.70;101606.00;;;;5060053;28;20239;-71
2022/01/16 05:42:53;;;;;;;60.40;19.90;;;;;3.70;101624.00;;;;5066564;28;20371;-70
2022/01/16 05:45:39;;;;;;;67.70;20.60;;;;;3.80;101614.00;;;;5066462;28;20350;-71
2022/01/16 05:48:27;;;;;;;58.73;20.10;;;;;3.70;101616.00;;;;5066380;28;20354;-70
2022/01/16 05:51:13;;;;;;;70.03;22.57;;;;;3.70;101609.00;;;;5065799;28;20302;-70
2022/01/16 05:54:00;;;;;;;79.47;23.17;;;;;3.70;101615.00;;;;5061010;28;20327;-72
2022/01/16 05:56:46;;;;;;;71.10;22.40;;;;;3.60;101622.00;;;;5066675;28;20219;-71
2022/01/16 05:59:33;;;;;;;75.00;22.43;;;;;3.70;101599.00;;;;5066993;28;20237;-70
2022/01/16 06:02:19;;;;;;;65.23;21.97;;;;;3.80;101590.00;;;;5065736;28;20243;-72
2022/01/16 06:05:07;;;;;;;76.87;23.73;;;;;3.80;101581.00;;;;5058393;28;20297;-72
2022/01/16 06:07:57;;;;;;;78.80;24.17;;;;;3.70;101586.00;;;;5063522;28;20760;-73
2022/01/16 06:10:44;;;;;;;75.00;25.17;;;;;3.60;101578.00;;;;5059217;28;20230;-70
2022/01/16 06:13:30;;;;;;;72.27;25.20;;;;;3.70;101572.00;;;;5067658;28;20225;-69
2022/01/16 06:16:17;;;;;;;72.30;25.03;;;;;3.70;101567.00;;;;5069510;28;20231;-71
2022/01/16 06:19:04;;;;;;;80.00;26.53;;;;;3.60;101571.00;;;;5057763;28;20251;-72
2022/01/16 06:21:50;;;;;;;80.23;25.47;;;;;3.80;101562.00;;;;5065425;28;20667;-71
2022/01/16 06:24:36;;;;;;;75.20;25.10;;;;;3.70;101576.00;;;;5066612;28;20719;-71
2022/01/16 06:27:23;;;;;;;70.30;24.67;;;;;3.70;101572.00;;;;5065336;28;20686;-71
2022/01/16 06:30:11;;;;;;;78.77;26.37;;;;;3.70;101570.00;;;;5065653;28;20235;-70
2022/01/16 06:32:59;;;;;;;74.80;26.13;;;;;3.70;101570.00;;;;5063418;28;20244;-72
2022/01/16 06:35:45;;;;;;;77.67;25.67;;;;;3.80;101573.00;;;;5066639;28;20373;-72
2022/01/16 06:38:31;;;;;;;72.83;24.87;;;;;3.90;101576.00;;;;5065025;28;20229;-73
2022/01/16 06:41:17;;;;;;;75.70;25.83;;;;;4.00;101577.00;;;;5065727;28;20230;-72
2022/01/16 06:44:05;;;;;;;77.00;25.13;;;;;3.70;101579.00;;;;5065191;28;20713;-70
2022/01/16 06:46:51;;;;;;;80.50;25.13;;;;;3.80;101593.00;;;;5066120;28;20221;-70
2022/01/16 06:49:39;;;;;;;67.57;24.13;;;;;3.80;101594.00;;;;5065959;28;20232;-71
2022/01/16 06:52:25;;;;;;;72.47;25.70;;;;;3.80;101602.00;;;;5061146;28;20232;-71
2022/01/16 06:55:12;;;;;;;79.13;25.67;;;;;4.00;101612.00;;;;5068430;28;20232;-71
2022/01/16 06:57:58;;;;;;;79.20;26.23;;;;;3.80;101603.00;;;;5065741;28;20849;-71
2022/01/16 07:00:46;;;;;;;78.87;26.93;;;;;3.70;101607.00;;;;5062297;28;20243;-73
2022/01/16 07:03:33;;;;;;;85.17;26.80;;;;;3.70;101609.00;;;;5066942;28;20422;-71
2022/01/16 07:06:21;;;;;;;82.33;26.00;;;;;3.80;101606.00;;;;5065937;28;20734;-71
2022/01/16 07:09:07;;;;;;;72.67;25.57;;;;;3.70;101616.00;;;;5069060;28;20223;-71
2022/01/16 07:11:53;;;;;;;83.23;26.23;;;;;3.90;101617.00;;;;5065782;28;20334;-71
2022/01/16 07:14:39;;;;;;;76.67;26.57;;;;;3.80;101594.00;;;;5076937;28;20761;-72
2022/01/16 07:17:26;;;;;;;74.63;26.23;;;;;3.70;101623.00;;;;5063704;28;20228;-73
2022/01/16 07:20:14;;;;;;;77.27;26.13;;;;;3.60;101620.00;;;;5057448;28;20228;-71
2022/01/16 07:23:02;;;;;;;76.80;27.77;;;;;3.70;101621.00;;;;5074300;28;20235;-74
2022/01/16 07:25:48;;;;;;;72.57;27.13;;;;;3.70;101639.00;;;;5061973;28;20708;-71
2022/01/16 07:28:34;;;;;;;76.60;27.27;;;;;3.70;101637.00;;;;5076145;28;20259;-72
2022/01/16 07:31:21;;;;;;;89.47;29.03;;;;;3.70;101648.00;;;;5068394;28;20238;-72
2022/01/16 07:34:08;;;;;;;75.57;25.77;;;;;3.70;101648.00;;;;5063612;28;20232;-73
2022/01/16 07:36:54;;;;;;;79.93;29.60;;;;;3.70;101643.00;;;;5069584;28;20297;-70
2022/01/16 07:39:41;;;;;;;83.37;28.97;;;;;3.80;101633.00;;;;5069284;28;20237;-71
2022/01/16 07:42:28;;;;;;;82.67;29.60;;;;;3.70;101646.00;;;;5066672;28;20271;-73
2022/01/16 07:45:14;;;;;;;85.63;30.20;;;;;3.70;101653.00;;;;5076780;28;20591;-72
2022/01/16 07:48:01;;;;;;;74.70;28.60;;;;;3.70;101646.00;;;;5061016;28;20232;-72
2022/01/16 07:50:47;;;;;;;86.77;30.60;;;;;3.80;101640.00;;;;5069165;28;20232;-71
2022/01/16 07:53:34;;;;;;;80.50;29.90;;;;;3.90;101657.00;;;;5068167;28;20924;-71
2022/01/16 07:56:21;;;;;;;77.07;29.07;;;;;3.90;101650.00;;;;5073472;28;20235;-72
2022/01/16 07:59:07;;;;;;;80.80;29.00;;;;;3.90;101659.00;;;;5067663;28;20685;-69
2022/01/16 08:01:54;;;;;;;89.73;32.30;;;;;4.00;101669.00;;;;5068790;28;20228;-71
2022/01/16 08:04:40;;;;;;;87.13;31.70;;;;;4.00;101660.00;;;;5068499;28;20587;-71
2022/01/16 08:07:27;;;;;;;78.57;31.30;;;;;4.10;101660.00;;;;5068205;28;20731;-73
2022/01/16 08:10:14;;;;;;;81.57;32.57;;;;;4.20;101675.00;;;;5067717;28;20224;-70
2022/01/16 08:13:01;;;;;;;90.27;33.10;;;;;4.30;101667.00;;;;5067928;28;20243;-70
2022/01/16 08:15:48;;;;;;;86.50;31.37;;;;;4.10;101658.00;;;;5060570;28;20319;-71
2022/01/16 08:18:36;;;;;;;83.37;32.57;;;;;4.20;101660.00;;;;5067480;28;20228;-72
2022/01/16 08:21:22;;;;;;;78.60;31.47;;;;;4.10;101663.00;;;;5066954;28;20247;-72
2022/01/16 08:24:08;;;;;;;76.77;30.63;;;;;4.10;101670.00;;;;5067952;28;20239;-73
2022/01/16 08:26:54;;;;;;;78.67;32.00;;;;;4.10;101667.00;;;;5068184;28;20219;-72
2022/01/16 08:29:42;;;;;;;84.43;31.03;;;;;4.10;101665.00;;;;5067612;28;20310;-71
2022/01/16 08:32:28;;;;;;;64.30;29.70;;;;;4.00;101665.00;;;;5059171;28;20313;-73
2022/01/16 08:35:15;;;;;;;78.53;29.53;;;;;4.20;101671.00;;;;5069931;28;20219;-74
2022/01/16 08:38:01;;;;;;;83.90;31.80;;;;;4.30;101667.00;;;;5061007;28;20361;-73
2022/01/16 08:40:47;;;;;;;73.47;30.63;;;;;4.40;101681.00;;;;5066352;28;20307;-73
2022/01/16 08:43:33;;;;;;;80.00;30.30;;;;;4.20;101676.00;;;;5063546;28;20232;-72
2022/01/16 08:46:21;;;;;;;78.57;32.90;;;;;4.30;101677.00;;;;5065231;28;20342;-73
2022/01/16 08:49:08;;;;;;;72.60;32.27;;;;;4.30;101682.00;;;;5067118;28;20232;-70
2022/01/16 08:51:55;;;;;;;82.90;32.30;;;;;4.40;101682.00;;;;5073197;28;20753;-73
2022/01/16 08:54:41;;;;;;;72.17;31.40;;;;;4.40;101646.00;;;;5067284;28;20226;-73
2022/01/16 08:57:27;;;;;;;77.63;30.87;;;;;4.30;101676.00;;;;5065481;28;20239;-73
2022/01/16 09:00:14;;;;;;;71.87;29.47;;;;;4.30;101681.00;;;;5066798;28;20738;-73
2022/01/16 09:03:01;;;;;;;74.73;31.30;;;;;4.40;101688.00;;;;5067045;28;20231;-73
2022/01/16 09:05:49;;;;;;;66.37;29.33;;;;;4.30;101683.00;;;;5067018;28;20289;-73
2022/01/16 09:08:36;;;;;;;74.23;31.43;;;;;4.40;101684.00;;;;5066268;28;20235;-74
2022/01/16 09:11:25;;;;;;;74.77;30.27;;;;;4.30;101688.00;;;;5066153;28;20358;-76
2022/01/16 09:14:11;;;;;;;71.63;29.50;;;;;4.50;101696.00;;;;5067283;28;20419;-73
2022/01/16 09:16:58;;;;;;;71.27;30.03;;;;;4.50;101696.00;;;;5058087;28;20240;-72
2022/01/16 09:19:46;;;;;;;70.50;29.60;;;;;4.60;101704.00;;;;5071311;28;20357;-72
2022/01/16 09:22:33;;;;;;;66.73;30.10;;;;;4.60;101708.00;;;;5066585;28;20232;-74
2022/01/16 09:25:20;;;;;;;66.33;29.17;;;;;4.60;101700.00;;;;5066772;28;20355;-73
2022/01/16 09:28:07;;;;;;;69.60;28.50;;;;;4.60;101711.00;;;;5053770;28;20243;-72
2022/01/16 09:30:53;;;;;;;63.57;29.37;;;;;4.50;101711.00;;;;5063835;28;20253;-72
2022/01/16 09:33:40;;;;;;;64.53;28.57;;;;;4.50;101720.00;;;;5067440;28;20243;-73
2022/01/16 09:36:27;;;;;;;58.10;27.87;;;;;4.70;101709.00;;;;5065059;28;20225;-73
2022/01/16 09:39:14;;;;;;;63.40;28.33;;;;;4.70;101715.00;;;;5064170;28;20226;-73
2022/01/16 09:42:01;;;;;;;66.07;29.37;;;;;4.70;101720.00;;;;5057956;28;20581;-72
2022/01/16 09:44:47;;;;;;;61.10;27.47;;;;;4.70;101722.00;;;;5061575;28;20298;-72
2022/01/16 09:47:34;;;;;;;65.87;27.67;;;;;4.90;101724.00;;;;5074948;28;20357;-75
2022/01/16 09:50:24;;;;;;;66.87;27.17;;;;;4.90;101731.00;;;;5061926;28;20251;-75
2022/01/16 09:53:12;;;;;;;59.93;27.67;;;;;4.80;101728.00;;;;5063685;28;20274;-74
2022/01/16 09:55:59;;;;;;;60.57;27.63;;;;;4.90;101721.00;;;;5058112;28;20742;-75
2022/01/16 09:58:46;;;;;;;61.40;26.70;;;;;4.90;101711.00;;;;5061274;28;20219;-70
2022/01/16 10:01:32;;;;;;;57.90;27.37;;;;;5.10;101725.00;;;;5059691;28;20245;-74
2022/01/16 10:04:32;;;;;;;56.23;26.30;;;;;5.00;101729.00;;;;5053124;28;20906;-76
2022/01/16 10:07:20;;;;;;;59.17;26.60;;;;;5.20;101720.00;;;;5057782;28;20852;-73
2022/01/16 10:10:10;;;;;;;57.53;27.47;;;;;5.20;101728.00;;;;5071416;28;20219;-74
2022/01/16 10:13:05;;;;;;;55.80;26.83;;;;;5.30;101729.00;;;;5065176;28;20632;-73
2022/01/16 10:15:55;;;;;;;59.17;25.87;;;;;5.30;101724.00;;;;5066917;28;20339;-73
2022/01/16 10:18:42;;;;;;;52.30;24.37;;;;;5.30;101706.00;;;;5065897;28;20231;-76
2022/01/16 10:21:39;;;;;;;54.80;25.07;;;;;5.40;101718.00;;;;5064865;28;20375;-74
2022/01/16 10:24:29;;;;;;;49.13;24.83;;;;;5.50;101722.00;;;;5065612;28;20566;-73
2022/01/16 10:27:21;;;;;;;53.57;24.30;;;;;5.40;101724.00;;;;5061805;28;20777;-73
2022/01/16 10:30:09;;;;;;;53.57;23.43;;;;;5.40;101722.00;;;;5061371;28;20224;-72
2022/01/16 10:32:55;;;;;;;53.17;24.03;;;;;5.50;101728.00;;;;5072779;28;20232;-71
2022/01/16 10:35:44;;;;;;;54.60;24.57;;;;;5.70;101740.00;;;;5064823;28;20726;-73
2022/01/16 10:38:31;;;;;;;53.63;23.13;;;;;5.70;101747.00;;;;5064004;28;20228;-73
2022/01/16 10:41:17;;;;;;;53.73;23.67;;;;;5.70;101736.00;;;;5068916;28;20243;-72
2022/01/16 10:44:26;;;;;;;44.90;21.70;;;;;5.70;101744.00;;;;5064879;28;20695;-72
2022/01/16 10:47:34;;;;;;;50.13;23.93;;;;;5.60;101742.00;;;;5061866;28;20231;-73
2022/01/16 10:50:22;;;;;;;51.43;23.30;;;;;5.60;101743.00;;;;5058668;28;20309;-74
2022/01/16 10:53:09;;;;;;;56.00;22.50;;;;;5.70;101752.00;;;;5065993;28;20845;-72
2022/01/16 10:55:57;;;;;;;53.33;22.50;;;;;5.70;101749.00;;;;5063992;28;20231;-74
2022/01/16 10:58:43;;;;;;;49.27;23.53;;;;;5.70;101741.00;;;;5057953;28;20231;-69
2022/01/16 11:01:31;;;;;;;47.70;22.13;;;;;5.70;101754.00;;;;5061683;28;20236;-73
2022/01/16 11:04:25;;;;;;;49.30;22.67;;;;;5.60;101750.00;;;;5056744;28;20370;-72
2022/01/16 11:07:12;;;;;;;42.33;20.73;;;;;5.60;101745.00;;;;5050314;28;20233;-73
2022/01/16 11:10:00;;;;;;;44.83;22.93;;;;;5.60;101749.00;;;;5048165;28;20236;-74
2022/01/16 11:12:48;;;;;;;44.03;20.77;;;;;5.50;101749.00;;;;5068962;28;20306;-75
2022/01/16 11:15:36;;;;;;;44.07;21.53;;;;;5.60;101755.00;;;;5063252;28;20250;-71
2022/01/16 11:18:25;;;;;;;44.20;21.47;;;;;5.60;101758.00;;;;5062757;28;20232;-72
2022/01/16 11:21:18;;;;;;;46.10;21.57;;;;;5.70;101762.00;;;;5052309;28;20240;-73
2022/01/16 11:24:25;;;;;;;42.70;19.97;;;;;5.50;101773.00;;;;5058666;28;20877;-73
2022/01/16 11:27:11;;;;;;;52.53;22.70;;;;;5.60;101765.00;;;;5062864;28;20261;-74
2022/01/16 11:29:57;;;;;;;44.10;20.77;;;;;5.70;101763.00;;;;5061714;28;20702;-74
2022/01/16 11:32:44;;;;;;;42.37;21.03;;;;;5.80;101764.00;;;;5056132;28;20231;-72
2022/01/16 11:35:33;;;;;;;48.40;21.50;;;;;5.90;101764.00;;;;5061384;28;20602;-72
2022/01/16 11:38:21;;;;;;;43.40;19.87;;;;;5.70;101775.00;;;;5063034;28;20250;-75
2022/01/16 11:41:13;;;;;;;45.57;20.77;;;;;5.90;101773.00;;;;5058429;28;20235;-72
2022/01/16 11:44:01;;;;;;;43.90;19.93;;;;;5.80;101768.00;;;;5055847;28;20239;-71
2022/01/16 11:46:51;;;;;;;41.80;19.40;;;;;5.80;101767.00;;;;5056453;28;20232;-73
2022/01/16 11:49:41;;;;;;;44.80;19.47;;;;;5.90;101777.00;;;;5062985;28;20232;-70
2022/01/16 11:52:40;;;;;;;47.47;21.37;;;;;6.00;101773.00;;;;5062947;28;20236;-71
2022/01/16 11:55:33;;;;;;;46.27;19.67;;;;;5.90;101766.00;;;;5068766;28;20236;-73
2022/01/16 11:58:20;;;;;;;40.90;19.67;;;;;5.90;101767.00;;;;5061610;28;21041;-71
2022/01/16 12:01:06;;;;;;;43.70;21.17;;;;;5.80;101772.00;;;;5069067;28;20239;-72
2022/01/16 12:03:52;;;;;;;45.23;20.43;;;;;5.80;101770.00;;;;5066716;28;20678;-71
2022/01/16 12:06:39;;;;;;;42.27;20.93;;;;;5.80;101776.00;;;;5068234;28;20252;-70
2022/01/16 12:09:57;;;;;;;50.23;21.40;;;;;5.90;101773.00;;;;5065903;28;20710;-73
2022/01/16 12:12:43;;;;;;;43.40;19.93;;;;;5.80;101777.00;;;;5062036;28;20235;-73
2022/01/16 12:15:32;;;;;;;46.63;20.57;;;;;5.90;101778.00;;;;5068604;28;20227;-70
2022/01/16 12:18:33;;;;;;;50.00;20.63;;;;;5.80;101776.00;;;;5067854;28;20766;-72
2022/01/16 12:21:32;;;;;;;49.13;21.53;;;;;5.80;101767.00;;;;5068226;28;20319;-74
2022/01/16 12:24:33;;;;;;;44.90;21.47;;;;;5.80;101777.00;;;;5064816;28;20239;-76
2022/01/16 12:27:26;;;;;;;48.23;21.07;;;;;5.70;101773.00;;;;5061757;28;20235;-73
2022/01/16 12:30:25;;;;;;;47.73;20.73;;;;;5.80;101769.00;;;;5075393;28;20234;-75
2022/01/16 12:33:23;;;;;;;50.60;20.80;;;;;5.80;101774.00;;;;5063711;28;20850;-72
2022/01/16 12:36:14;;;;;;;49.10;22.00;;;;;5.70;101750.00;;;;5063642;28;20302;-71
2022/01/16 12:39:05;;;;;;;53.53;22.43;;;;;5.90;101779.00;;;;5062617;28;20649;-70
2022/01/16 12:41:54;;;;;;;52.50;22.53;;;;;5.80;101780.00;;;;5068820;28;20244;-72
2022/01/16 12:44:42;;;;;;;55.10;23.43;;;;;5.80;101768.00;;;;5067570;28;20720;-71
2022/01/16 12:47:28;;;;;;;50.60;22.73;;;;;5.80;101777.00;;;;5067398;28;20314;-71
2022/01/16 12:50:16;;;;;;;55.23;22.97;;;;;5.80;101779.00;;;;5065578;28;20273;-72
2022/01/16 12:53:03;;;;;;;58.43;23.30;;;;;5.80;101780.00;;;;5060545;28;20856;-71
2022/01/16 12:55:49;;;;;;;56.37;23.67;;;;;6.00;101777.00;;;;5066939;28;20266;-70
2022/01/16 12:58:35;;;;;;;51.77;22.63;;;;;5.80;101758.00;;;;5059797;28;20347;-69
2022/01/16 13:01:24;;;;;;;54.97;23.33;;;;;5.80;101762.00;;;;5054662;28;20232;-72
2022/01/16 13:04:26;;;;;;;54.77;24.07;;;;;5.80;101767.00;;;;5063057;28;20289;-71
2022/01/16 13:07:15;;;;;;;54.17;23.70;;;;;5.80;101760.00;;;;5062830;28;20875;-72
2022/01/16 13:10:01;;;;;;;49.93;24.53;;;;;5.80;101761.00;;;;5061762;28;20247;-73
2022/01/16 13:12:47;;;;;;;57.57;23.17;;;;;5.80;101765.00;;;;5062373;28;20362;-70
2022/01/16 13:15:33;;;;;;;53.63;23.40;;;;;5.80;101759.00;;;;5068119;28;20239;-74
2022/01/16 13:18:21;;;;;;;61.23;24.20;;;;;5.90;101748.00;;;;5067626;28;20240;-74
2022/01/16 13:21:08;;;;;;;60.87;23.53;;;;;5.80;101763.00;;;;5067243;28;20235;-73
2022/01/16 13:23:54;;;;;;;61.80;23.03;;;;;5.80;101770.00;;;;5061020;28;20293;-71
2022/01/16 13:26:46;;;;;;;54.43;23.27;;;;;6.00;101785.00;;;;5066937;28;20232;-72
2022/01/16 13:29:36;;;;;;;58.73;24.70;;;;;5.80;101771.00;;;;5067319;28;20729;-71
2022/01/16 13:32:27;;;;;;;58.83;23.23;;;;;5.80;101779.00;;;;5067354;28;20235;-73
2022/01/16 13:35:23;;;;;;;62.87;24.80;;;;;5.90;101771.00;;;;5064684;28;20722;-73
2022/01/16 13:38:12;;;;;;;63.33;23.90;;;;;5.90;101762.00;;;;5067758;28;20603;-73
2022/01/16 13:40:59;;;;;;;69.03;25.23;;;;;5.90;101768.00;;;;5068468;28;20239;-72
2022/01/16 13:43:46;;;;;;;65.20;24.53;;;;;5.80;101770.00;;;;5067460;28;20305;-73
2022/01/16 13:46:33;;;;;;;66.60;24.87;;;;;5.80;101784.00;;;;5068031;28;20606;-72
2022/01/16 13:49:19;;;;;;;62.83;23.53;;;;;6.00;101776.00;;;;5067832;28;20309;-74
2022/01/16 13:52:07;;;;;;;60.60;24.40;;;;;5.90;101801.00;;;;5062836;28;20232;-73
2022/01/16 13:55:08;;;;;;;66.63;25.97;;;;;5.80;101792.00;;;;5062670;28;20244;-73
2022/01/16 13:57:55;;;;;;;60.63;22.77;;;;;5.90;101790.00;;;;5060841;28;20223;-72
2022/01/16 14:00:48;;;;;;;64.70;24.23;;;;;6.00;101788.00;;;;5063915;28;20650;-72
2022/01/16 14:03:34;;;;;;;70.03;23.67;;;;;5.80;101792.00;;;;5057372;28;20643;-72
2022/01/16 14:06:22;;;;;;;67.60;23.80;;;;;5.90;101791.00;;;;5071506;28;20239;-71
2022/01/16 14:09:10;;;;;;;55.27;22.57;;;;;5.70;101786.00;;;;5065740;28;20239;-71
2022/01/16 14:11:56;;;;;;;59.60;21.93;;;;;5.70;101797.00;;;;5058691;28;20266;-69
2022/01/16 14:14:42;;;;;;;53.17;22.57;;;;;5.80;101796.00;;;;5064198;28;20316;-72